sensor_id;sensor_type;location;lat;lon;timestamp;P1;durP1;ratioP1;P2;durP2;ratioP2
64075;SDS011;50327;51.328;12.324;2022-10-18T00:01:55;18.05;;;7.35;;
64075;SDS011;50327;51.328;12.324;2022-10-18T00:04:20;25.42;;;10.00;;
64075;SDS011;50327;51.328;12.324;2022-10-18T00:06:45;23.83;;;7.90;;
64075;SDS011;50327;51.328;12.324;2022-10-18T00:09:10;19.02;;;8.07;;
64075;SDS011;50327;51.328;12.324;2022-10-18T00:11:35;28.95;;;8.45;;
64075;SDS011;50327;51.328;12.324;2022-10-18T00:14:01;20.63;;;8.50;;
64075;SDS011;50327;51.328;12.324;2022-10-18T00:16:26;23.42;;;7.60;;
64075;SDS011;50327;51.328;12.324;2022-10-18T00:18:51;25.63;;;9.25;;
64075;SDS011;50327;51.328;12.324;2022-10-18T00:21:17;13.90;;;7.57;;
64075;SDS011;50327;51.328;12.324;2022-10-18T00:23:43;12.93;;;6.45;;
64075;SDS011;50327;51.328;12.324;2022-10-18T00:26:11;17.15;;;7.90;;
64075;SDS011;50327;51.328;12.324;2022-10-18T00:28:37;17.92;;;7.65;;
64075;SDS011;50327;51.328;12.324;2022-10-18T00:31:16;18.98;;;7.55;;
64075;SDS011;50327;51.328;12.324;2022-10-18T00:33:42;20.27;;;8.07;;
64075;SDS011;50327;51.328;12.324;2022-10-18T00:36:07;17.48;;;7.28;;
64075;SDS011;50327;51.328;12.324;2022-10-18T00:38:33;17.65;;;7.68;;
64075;SDS011;50327;51.328;12.324;2022-10-18T00:40:58;21.35;;;8.63;;
64075;SDS011;50327;51.328;12.324;2022-10-18T00:43:23;22.58;;;7.65;;
64075;SDS011;50327;51.328;12.324;2022-10-18T00:45:49;20.23;;;7.45;;
64075;SDS011;50327;51.328;12.324;2022-10-18T00:48:14;20.08;;;7.47;;
64075;SDS011;50327;51.328;12.324;2022-10-18T00:50:41;20.00;;;8.18;;
64075;SDS011;50327;51.328;12.324;2022-10-18T00:53:08;31.50;;;9.35;;
64075;SDS011;50327;51.328;12.324;2022-10-18T00:55:33;19.75;;;8.18;;
64075;SDS011;50327;51.328;12.324;2022-10-18T00:57:59;28.08;;;10.43;;
64075;SDS011;50327;51.328;12.324;2022-10-18T01:00:24;25.17;;;9.50;;
64075;SDS011;50327;51.328;12.324;2022-10-18T01:02:49;20.63;;;7.82;;
64075;SDS011;50327;51.328;12.324;2022-10-18T01:05:16;23.92;;;8.70;;
64075;SDS011;50327;51.328;12.324;2022-10-18T01:17:28;21.98;;;8.50;;
64075;SDS011;50327;51.328;12.324;2022-10-18T01:22:30;26.17;;;8.57;;
64075;SDS011;50327;51.328;12.324;2022-10-18T01:30:06;20.73;;;7.47;;
64075;SDS011;50327;51.328;12.324;2022-10-18T01:32:36;26.40;;;8.40;;
64075;SDS011;50327;51.328;12.324;2022-10-18T01:37:28;16.85;;;7.80;;
64075;SDS011;50327;51.328;12.324;2022-10-18T01:39:53;19.40;;;7.65;;
64075;SDS011;50327;51.328;12.324;2022-10-18T01:42:20;27.13;;;9.00;;
64075;SDS011;50327;51.328;12.324;2022-10-18T01:44:45;20.90;;;8.25;;
64075;SDS011;50327;51.328;12.324;2022-10-18T01:47:12;28.58;;;8.75;;
64075;SDS011;50327;51.328;12.324;2022-10-18T01:49:38;26.90;;;7.65;;
64075;SDS011;50327;51.328;12.324;2022-10-18T01:52:03;22.00;;;8.18;;
64075;SDS011;50327;51.328;12.324;2022-10-18T01:54:29;18.02;;;7.68;;
64075;SDS011;50327;51.328;12.324;2022-10-18T01:57:04;20.00;;;8.80;;
64075;SDS011;50327;51.328;12.324;2022-10-18T02:04:32;39.75;;;9.38;;
64075;SDS011;50327;51.328;12.324;2022-10-18T02:07:14;18.42;;;8.23;;
64075;SDS011;50327;51.328;12.324;2022-10-18T02:09:50;26.20;;;9.23;;
64075;SDS011;50327;51.328;12.324;2022-10-18T02:12:18;22.80;;;8.27;;
64075;SDS011;50327;51.328;12.324;2022-10-18T02:14:44;18.10;;;8.65;;
64075;SDS011;50327;51.328;12.324;2022-10-18T02:17:10;17.52;;;7.63;;
64075;SDS011;50327;51.328;12.324;2022-10-18T02:19:37;17.98;;;7.68;;
64075;SDS011;50327;51.328;12.324;2022-10-18T02:22:04;16.42;;;7.40;;
64075;SDS011;50327;51.328;12.324;2022-10-18T02:24:35;19.38;;;7.85;;
64075;SDS011;50327;51.328;12.324;2022-10-18T02:27:01;18.35;;;7.63;;
64075;SDS011;50327;51.328;12.324;2022-10-18T02:29:27;20.33;;;6.95;;
64075;SDS011;50327;51.328;12.324;2022-10-18T02:31:54;24.45;;;8.00;;
64075;SDS011;50327;51.328;12.324;2022-10-18T02:34:28;21.48;;;8.13;;
64075;SDS011;50327;51.328;12.324;2022-10-18T02:36:56;25.77;;;8.95;;
64075;SDS011;50327;51.328;12.324;2022-10-18T02:39:22;23.77;;;9.68;;
64075;SDS011;50327;51.328;12.324;2022-10-18T02:41:49;23.00;;;8.50;;
64075;SDS011;50327;51.328;12.324;2022-10-18T02:44:14;24.27;;;8.38;;
64075;SDS011;50327;51.328;12.324;2022-10-18T02:46:39;21.47;;;7.73;;
64075;SDS011;50327;51.328;12.324;2022-10-18T02:49:05;16.38;;;7.50;;
64075;SDS011;50327;51.328;12.324;2022-10-18T02:51:30;22.25;;;8.73;;
64075;SDS011;50327;51.328;12.324;2022-10-18T02:53:55;21.20;;;7.70;;
64075;SDS011;50327;51.328;12.324;2022-10-18T02:56:20;26.90;;;9.35;;
64075;SDS011;50327;51.328;12.324;2022-10-18T02:58:46;30.17;;;9.13;;
64075;SDS011;50327;51.328;12.324;2022-10-18T03:01:11;24.13;;;8.45;;
64075;SDS011;50327;51.328;12.324;2022-10-18T03:03:36;38.88;;;10.32;;
64075;SDS011;50327;51.328;12.324;2022-10-18T03:06:01;24.13;;;8.20;;
64075;SDS011;50327;51.328;12.324;2022-10-18T03:08:26;22.40;;;8.83;;
64075;SDS011;50327;51.328;12.324;2022-10-18T03:10:52;21.88;;;8.95;;
64075;SDS011;50327;51.328;12.324;2022-10-18T03:13:17;17.85;;;9.13;;
64075;SDS011;50327;51.328;12.324;2022-10-18T03:15:42;27.85;;;8.85;;
64075;SDS011;50327;51.328;12.324;2022-10-18T03:18:07;18.15;;;9.35;;
64075;SDS011;50327;51.328;12.324;2022-10-18T03:20:32;29.30;;;10.83;;
64075;SDS011;50327;51.328;12.324;2022-10-18T03:22:58;28.70;;;10.02;;
64075;SDS011;50327;51.328;12.324;2022-10-18T03:25:23;37.42;;;10.27;;
64075;SDS011;50327;51.328;12.324;2022-10-18T03:27:48;29.13;;;8.70;;
64075;SDS011;50327;51.328;12.324;2022-10-18T03:30:13;22.30;;;8.75;;
64075;SDS011;50327;51.328;12.324;2022-10-18T03:32:39;16.25;;;8.20;;
64075;SDS011;50327;51.328;12.324;2022-10-18T03:35:05;21.50;;;10.18;;
64075;SDS011;50327;51.328;12.324;2022-10-18T03:37:30;20.25;;;8.95;;
64075;SDS011;50327;51.328;12.324;2022-10-18T03:39:55;29.00;;;9.38;;
64075;SDS011;50327;51.328;12.324;2022-10-18T03:42:21;26.48;;;8.70;;
64075;SDS011;50327;51.328;12.324;2022-10-18T03:44:46;17.10;;;8.23;;
64075;SDS011;50327;51.328;12.324;2022-10-18T03:47:11;34.53;;;8.13;;
64075;SDS011;50327;51.328;12.324;2022-10-18T03:49:36;20.30;;;9.35;;
64075;SDS011;50327;51.328;12.324;2022-10-18T03:52:02;23.88;;;8.68;;
64075;SDS011;50327;51.328;12.324;2022-10-18T03:54:30;14.93;;;8.13;;
64075;SDS011;50327;51.328;12.324;2022-10-18T03:56:55;19.63;;;8.35;;
64075;SDS011;50327;51.328;12.324;2022-10-18T03:59:21;20.40;;;8.88;;
64075;SDS011;50327;51.328;12.324;2022-10-18T04:01:47;24.33;;;8.90;;
64075;SDS011;50327;51.328;12.324;2022-10-18T04:04:12;21.23;;;9.65;;
64075;SDS011;50327;51.328;12.324;2022-10-18T04:06:37;20.45;;;8.70;;
64075;SDS011;50327;51.328;12.324;2022-10-18T04:09:02;22.13;;;11.07;;
64075;SDS011;50327;51.328;12.324;2022-10-18T04:11:27;32.63;;;10.38;;
64075;SDS011;50327;51.328;12.324;2022-10-18T04:13:52;18.47;;;9.80;;
64075;SDS011;50327;51.328;12.324;2022-10-18T04:16:18;24.10;;;8.98;;
64075;SDS011;50327;51.328;12.324;2022-10-18T04:18:43;24.80;;;8.35;;
64075;SDS011;50327;51.328;12.324;2022-10-18T04:21:08;19.87;;;8.93;;
64075;SDS011;50327;51.328;12.324;2022-10-18T04:23:33;18.25;;;9.07;;
64075;SDS011;50327;51.328;12.324;2022-10-18T04:25:59;20.83;;;8.70;;
64075;SDS011;50327;51.328;12.324;2022-10-18T04:28:24;19.43;;;9.27;;
64075;SDS011;50327;51.328;12.324;2022-10-18T04:30:50;24.02;;;10.05;;
64075;SDS011;50327;51.328;12.324;2022-10-18T04:33:15;21.33;;;10.15;;
64075;SDS011;50327;51.328;12.324;2022-10-18T04:35:40;26.23;;;9.45;;
64075;SDS011;50327;51.328;12.324;2022-10-18T04:38:05;25.97;;;9.67;;
64075;SDS011;50327;51.328;12.324;2022-10-18T04:40:31;28.73;;;9.48;;
64075;SDS011;50327;51.328;12.324;2022-10-18T04:42:56;21.00;;;9.00;;
64075;SDS011;50327;51.328;12.324;2022-10-18T04:45:21;20.48;;;9.30;;
64075;SDS011;50327;51.328;12.324;2022-10-18T04:47:46;19.70;;;8.63;;
64075;SDS011;50327;51.328;12.324;2022-10-18T04:50:11;29.73;;;9.20;;
64075;SDS011;50327;51.328;12.324;2022-10-18T04:52:37;22.73;;;9.23;;
64075;SDS011;50327;51.328;12.324;2022-10-18T04:55:02;22.65;;;9.65;;
64075;SDS011;50327;51.328;12.324;2022-10-18T04:57:27;26.83;;;10.77;;
64075;SDS011;50327;51.328;12.324;2022-10-18T04:59:52;26.02;;;10.73;;
64075;SDS011;50327;51.328;12.324;2022-10-18T05:02:18;33.10;;;12.70;;
64075;SDS011;50327;51.328;12.324;2022-10-18T05:04:43;32.67;;;13.47;;
64075;SDS011;50327;51.328;12.324;2022-10-18T05:07:08;27.55;;;13.02;;
64075;SDS011;50327;51.328;12.324;2022-10-18T05:09:33;41.03;;;15.60;;
64075;SDS011;50327;51.328;12.324;2022-10-18T05:11:59;32.67;;;13.15;;
64075;SDS011;50327;51.328;12.324;2022-10-18T05:14:24;43.72;;;14.07;;
64075;SDS011;50327;51.328;12.324;2022-10-18T05:16:49;29.33;;;11.52;;
64075;SDS011;50327;51.328;12.324;2022-10-18T05:19:14;29.80;;;12.18;;
64075;SDS011;50327;51.328;12.324;2022-10-18T05:21:39;25.38;;;9.88;;
64075;SDS011;50327;51.328;12.324;2022-10-18T05:24:05;22.35;;;10.10;;
64075;SDS011;50327;51.328;12.324;2022-10-18T05:26:30;21.13;;;9.55;;
64075;SDS011;50327;51.328;12.324;2022-10-18T05:28:55;47.05;;;10.23;;
64075;SDS011;50327;51.328;12.324;2022-10-18T05:31:20;26.63;;;8.95;;
64075;SDS011;50327;51.328;12.324;2022-10-18T05:33:46;25.83;;;10.27;;
64075;SDS011;50327;51.328;12.324;2022-10-18T05:36:11;20.33;;;8.57;;
64075;SDS011;50327;51.328;12.324;2022-10-18T05:38:37;25.00;;;9.02;;
64075;SDS011;50327;51.328;12.324;2022-10-18T05:41:02;23.42;;;10.43;;
64075;SDS011;50327;51.328;12.324;2022-10-18T05:43:27;18.75;;;8.75;;
64075;SDS011;50327;51.328;12.324;2022-10-18T05:45:53;25.90;;;9.60;;
64075;SDS011;50327;51.328;12.324;2022-10-18T05:48:18;40.23;;;11.27;;
64075;SDS011;50327;51.328;12.324;2022-10-18T05:50:43;24.35;;;10.27;;
64075;SDS011;50327;51.328;12.324;2022-10-18T05:53:08;24.08;;;9.40;;
64075;SDS011;50327;51.328;12.324;2022-10-18T05:55:34;22.92;;;9.10;;
64075;SDS011;50327;51.328;12.324;2022-10-18T05:57:59;26.30;;;9.10;;
64075;SDS011;50327;51.328;12.324;2022-10-18T06:00:24;30.63;;;9.32;;
64075;SDS011;50327;51.328;12.324;2022-10-18T06:02:49;27.80;;;9.80;;
64075;SDS011;50327;51.328;12.324;2022-10-18T06:05:14;18.13;;;8.90;;
64075;SDS011;50327;51.328;12.324;2022-10-18T06:07:40;19.37;;;9.27;;
64075;SDS011;50327;51.328;12.324;2022-10-18T06:10:05;37.27;;;12.07;;
64075;SDS011;50327;51.328;12.324;2022-10-18T06:12:30;25.95;;;11.52;;
64075;SDS011;50327;51.328;12.324;2022-10-18T06:14:55;22.65;;;10.18;;
64075;SDS011;50327;51.328;12.324;2022-10-18T06:17:21;29.00;;;11.40;;
64075;SDS011;50327;51.328;12.324;2022-10-18T06:19:46;34.03;;;14.60;;
64075;SDS011;50327;51.328;12.324;2022-10-18T06:22:11;30.63;;;12.70;;
64075;SDS011;50327;51.328;12.324;2022-10-18T06:24:36;22.23;;;11.80;;
64075;SDS011;50327;51.328;12.324;2022-10-18T06:27:02;25.75;;;10.65;;
64075;SDS011;50327;51.328;12.324;2022-10-18T06:29:32;34.72;;;12.30;;
64075;SDS011;50327;51.328;12.324;2022-10-18T06:31:57;35.15;;;12.65;;
64075;SDS011;50327;51.328;12.324;2022-10-18T06:34:23;36.63;;;14.13;;
64075;SDS011;50327;51.328;12.324;2022-10-18T06:36:48;28.67;;;12.93;;
64075;SDS011;50327;51.328;12.324;2022-10-18T06:39:13;36.87;;;15.10;;
64075;SDS011;50327;51.328;12.324;2022-10-18T06:41:38;34.05;;;15.13;;
64075;SDS011;50327;51.328;12.324;2022-10-18T06:44:03;36.30;;;14.98;;
64075;SDS011;50327;51.328;12.324;2022-10-18T06:46:37;32.30;;;14.25;;
64075;SDS011;50327;51.328;12.324;2022-10-18T06:49:02;31.87;;;14.40;;
64075;SDS011;50327;51.328;12.324;2022-10-18T06:51:27;35.85;;;15.07;;
64075;SDS011;50327;51.328;12.324;2022-10-18T06:53:53;40.17;;;15.75;;
64075;SDS011;50327;51.328;12.324;2022-10-18T06:56:18;44.60;;;15.32;;
64075;SDS011;50327;51.328;12.324;2022-10-18T06:58:43;45.50;;;17.45;;
64075;SDS011;50327;51.328;12.324;2022-10-18T07:01:09;55.95;;;17.27;;
64075;SDS011;50327;51.328;12.324;2022-10-18T07:03:35;42.53;;;16.75;;
64075;SDS011;50327;51.328;12.324;2022-10-18T07:06:01;42.30;;;16.98;;
64075;SDS011;50327;51.328;12.324;2022-10-18T07:08:26;39.42;;;18.60;;
64075;SDS011;50327;51.328;12.324;2022-10-18T07:10:52;42.60;;;17.77;;
64075;SDS011;50327;51.328;12.324;2022-10-18T07:13:17;37.08;;;16.25;;
64075;SDS011;50327;51.328;12.324;2022-10-18T07:15:42;39.10;;;14.90;;
64075;SDS011;50327;51.328;12.324;2022-10-18T07:18:07;43.33;;;16.50;;
64075;SDS011;50327;51.328;12.324;2022-10-18T07:20:33;40.97;;;14.97;;
64075;SDS011;50327;51.328;12.324;2022-10-18T07:22:58;35.95;;;16.65;;
64075;SDS011;50327;51.328;12.324;2022-10-18T07:25:23;28.77;;;13.85;;
64075;SDS011;50327;51.328;12.324;2022-10-18T07:27:48;31.50;;;15.40;;
64075;SDS011;50327;51.328;12.324;2022-10-18T07:30:13;37.92;;;15.30;;
64075;SDS011;50327;51.328;12.324;2022-10-18T07:32:39;33.33;;;15.13;;
64075;SDS011;50327;51.328;12.324;2022-10-18T07:35:04;32.22;;;15.30;;
64075;SDS011;50327;51.328;12.324;2022-10-18T07:37:29;34.72;;;14.43;;
64075;SDS011;50327;51.328;12.324;2022-10-18T07:39:54;37.55;;;15.93;;
64075;SDS011;50327;51.328;12.324;2022-10-18T07:42:22;41.15;;;17.05;;
64075;SDS011;50327;51.328;12.324;2022-10-18T07:44:47;41.35;;;17.83;;
64075;SDS011;50327;51.328;12.324;2022-10-18T07:47:13;45.55;;;19.58;;
64075;SDS011;50327;51.328;12.324;2022-10-18T07:49:39;43.30;;;18.73;;
64075;SDS011;50327;51.328;12.324;2022-10-18T07:52:04;41.10;;;17.13;;
64075;SDS011;50327;51.328;12.324;2022-10-18T07:54:29;44.58;;;19.38;;
64075;SDS011;50327;51.328;12.324;2022-10-18T07:56:54;34.97;;;15.80;;
64075;SDS011;50327;51.328;12.324;2022-10-18T07:59:20;31.75;;;15.00;;
64075;SDS011;50327;51.328;12.324;2022-10-18T08:01:45;37.80;;;17.35;;
64075;SDS011;50327;51.328;12.324;2022-10-18T08:04:10;35.92;;;14.98;;
64075;SDS011;50327;51.328;12.324;2022-10-18T08:06:35;31.10;;;13.60;;
64075;SDS011;50327;51.328;12.324;2022-10-18T08:09:01;33.75;;;13.05;;
64075;SDS011;50327;51.328;12.324;2022-10-18T08:11:26;35.47;;;13.63;;
64075;SDS011;50327;51.328;12.324;2022-10-18T08:13:52;29.50;;;13.18;;
64075;SDS011;50327;51.328;12.324;2022-10-18T08:16:18;24.42;;;11.35;;
64075;SDS011;50327;51.328;12.324;2022-10-18T08:18:44;25.63;;;10.98;;
64075;SDS011;50327;51.328;12.324;2022-10-18T08:21:10;22.17;;;11.27;;
64075;SDS011;50327;51.328;12.324;2022-10-18T08:23:35;27.13;;;10.00;;
64075;SDS011;50327;51.328;12.324;2022-10-18T08:26:08;18.73;;;8.43;;
64075;SDS011;50327;51.328;12.324;2022-10-18T08:28:34;18.52;;;7.40;;
64075;SDS011;50327;51.328;12.324;2022-10-18T08:31:10;15.45;;;7.72;;
64075;SDS011;50327;51.328;12.324;2022-10-18T08:33:36;16.92;;;7.00;;
64075;SDS011;50327;51.328;12.324;2022-10-18T08:36:03;16.00;;;6.72;;
64075;SDS011;50327;51.328;12.324;2022-10-18T08:38:34;17.95;;;7.15;;
64075;SDS011;50327;51.328;12.324;2022-10-18T08:43:49;16.23;;;6.82;;
64075;SDS011;50327;51.328;12.324;2022-10-18T08:46:17;17.52;;;7.07;;
64075;SDS011;50327;51.328;12.324;2022-10-18T08:48:43;18.48;;;7.22;;
64075;SDS011;50327;51.328;12.324;2022-10-18T08:51:21;15.00;;;6.55;;
64075;SDS011;50327;51.328;12.324;2022-10-18T08:53:55;12.13;;;4.97;;
64075;SDS011;50327;51.328;12.324;2022-10-18T08:56:23;19.63;;;5.30;;
64075;SDS011;50327;51.328;12.324;2022-10-18T08:58:49;14.95;;;5.20;;
64075;SDS011;50327;51.328;12.324;2022-10-18T09:01:26;12.57;;;4.90;;
64075;SDS011;50327;51.328;12.324;2022-10-18T09:22:11;15.20;;;5.28;;
64075;SDS011;50327;51.328;12.324;2022-10-18T09:27:25;11.50;;;5.38;;
64075;SDS011;50327;51.328;12.324;2022-10-18T09:37:16;11.93;;;5.10;;
64075;SDS011;50327;51.328;12.324;2022-10-18T09:39:42;13.32;;;5.03;;
64075;SDS011;50327;51.328;12.324;2022-10-18T09:44:38;11.25;;;5.10;;
64075;SDS011;50327;51.328;12.324;2022-10-18T09:47:07;10.63;;;4.78;;
64075;SDS011;50327;51.328;12.324;2022-10-18T09:49:48;12.05;;;4.15;;
64075;SDS011;50327;51.328;12.324;2022-10-18T09:52:17;9.88;;;4.15;;
64075;SDS011;50327;51.328;12.324;2022-10-18T09:54:48;9.48;;;4.18;;
64075;SDS011;50327;51.328;12.324;2022-10-18T09:57:22;9.38;;;4.78;;
64075;SDS011;50327;51.328;12.324;2022-10-18T09:59:50;11.82;;;4.53;;
64075;SDS011;50327;51.328;12.324;2022-10-18T10:02:17;10.05;;;4.68;;
64075;SDS011;50327;51.328;12.324;2022-10-18T10:04:42;9.73;;;4.65;;
64075;SDS011;50327;51.328;12.324;2022-10-18T10:07:10;8.98;;;4.60;;
64075;SDS011;50327;51.328;12.324;2022-10-18T10:09:40;9.68;;;4.13;;
64075;SDS011;50327;51.328;12.324;2022-10-18T10:12:23;11.57;;;4.65;;
64075;SDS011;50327;51.328;12.324;2022-10-18T10:14:49;12.52;;;4.50;;
64075;SDS011;50327;51.328;12.324;2022-10-18T10:17:21;9.35;;;4.57;;
64075;SDS011;50327;51.328;12.324;2022-10-18T10:20:01;9.77;;;4.03;;
64075;SDS011;50327;51.328;12.324;2022-10-18T10:22:46;10.48;;;4.22;;
64075;SDS011;50327;51.328;12.324;2022-10-18T10:25:22;8.52;;;4.50;;
64075;SDS011;50327;51.328;12.324;2022-10-18T10:27:50;10.38;;;4.43;;
64075;SDS011;50327;51.328;12.324;2022-10-18T10:32:50;14.93;;;6.13;;
64075;SDS011;50327;51.328;12.324;2022-10-18T10:37:50;8.18;;;4.10;;
64075;SDS011;50327;51.328;12.324;2022-10-18T10:42:50;11.27;;;5.10;;
64075;SDS011;50327;51.328;12.324;2022-10-18T10:45:16;8.95;;;4.65;;
64075;SDS011;50327;51.328;12.324;2022-10-18T10:47:41;12.57;;;4.68;;
64075;SDS011;50327;51.328;12.324;2022-10-18T10:50:10;8.82;;;5.05;;
64075;SDS011;50327;51.328;12.324;2022-10-18T10:52:36;10.93;;;5.30;;
64075;SDS011;50327;51.328;12.324;2022-10-18T10:55:01;14.90;;;5.82;;
64075;SDS011;50327;51.328;12.324;2022-10-18T10:57:27;10.98;;;5.03;;
64075;SDS011;50327;51.328;12.324;2022-10-18T10:59:54;12.00;;;5.70;;
64075;SDS011;50327;51.328;12.324;2022-10-18T11:02:21;11.20;;;5.60;;
64075;SDS011;50327;51.328;12.324;2022-10-18T11:04:48;9.30;;;5.95;;
64075;SDS011;50327;51.328;12.324;2022-10-18T11:07:30;9.65;;;4.88;;
64075;SDS011;50327;51.328;12.324;2022-10-18T11:22:37;9.80;;;5.07;;
64075;SDS011;50327;51.328;12.324;2022-10-18T11:27:35;11.10;;;4.15;;
64075;SDS011;50327;51.328;12.324;2022-10-18T11:30:20;8.73;;;4.38;;
64075;SDS011;50327;51.328;12.324;2022-10-18T11:32:52;11.98;;;3.90;;
64075;SDS011;50327;51.328;12.324;2022-10-18T11:37:53;9.18;;;3.90;;
64075;SDS011;50327;51.328;12.324;2022-10-18T11:45:33;10.13;;;3.77;;
64075;SDS011;50327;51.328;12.324;2022-10-18T11:48:04;15.27;;;4.18;;
64075;SDS011;50327;51.328;12.324;2022-10-18T11:50:47;6.72;;;3.97;;
64075;SDS011;50327;51.328;12.324;2022-10-18T12:00:47;6.32;;;3.25;;
64075;SDS011;50327;51.328;12.324;2022-10-18T12:03:32;11.13;;;4.00;;
64075;SDS011;50327;51.328;12.324;2022-10-18T12:06:23;11.93;;;4.97;;
64075;SDS011;50327;51.328;12.324;2022-10-18T12:08:48;11.85;;;5.75;;
64075;SDS011;50327;51.328;12.324;2022-10-18T12:11:26;12.82;;;5.95;;
64075;SDS011;50327;51.328;12.324;2022-10-18T12:13:59;13.73;;;5.60;;
64075;SDS011;50327;51.328;12.324;2022-10-18T12:16:26;11.13;;;5.18;;
64075;SDS011;50327;51.328;12.324;2022-10-18T12:18:54;11.40;;;4.93;;
64075;SDS011;50327;51.328;12.324;2022-10-18T12:21:20;9.27;;;4.40;;
64075;SDS011;50327;51.328;12.324;2022-10-18T12:26:24;8.85;;;4.22;;
64075;SDS011;50327;51.328;12.324;2022-10-18T12:39:18;11.95;;;4.90;;
64075;SDS011;50327;51.328;12.324;2022-10-18T12:41:45;9.00;;;4.60;;
64075;SDS011;50327;51.328;12.324;2022-10-18T12:44:18;15.27;;;5.10;;
64075;SDS011;50327;51.328;12.324;2022-10-18T12:46:50;27.63;;;6.55;;
64075;SDS011;50327;51.328;12.324;2022-10-18T12:49:17;10.80;;;4.63;;
64075;SDS011;50327;51.328;12.324;2022-10-18T12:54:28;8.32;;;4.30;;
64075;SDS011;50327;51.328;12.324;2022-10-18T12:56:54;9.95;;;4.70;;
64075;SDS011;50327;51.328;12.324;2022-10-18T13:07:09;8.27;;;3.70;;
64075;SDS011;50327;51.328;12.324;2022-10-18T13:09:39;7.07;;;3.67;;
64075;SDS011;50327;51.328;12.324;2022-10-18T13:25:48;10.75;;;4.68;;
64075;SDS011;50327;51.328;12.324;2022-10-18T13:38:38;7.18;;;3.65;;
64075;SDS011;50327;51.328;12.324;2022-10-18T13:41:11;8.70;;;3.65;;
64075;SDS011;50327;51.328;12.324;2022-10-18T13:46:24;8.45;;;3.75;;
64075;SDS011;50327;51.328;12.324;2022-10-18T13:56:41;5.83;;;3.23;;
64075;SDS011;50327;51.328;12.324;2022-10-18T14:02:00;6.10;;;2.85;;
64075;SDS011;50327;51.328;12.324;2022-10-18T14:06:57;8.63;;;3.33;;
64075;SDS011;50327;51.328;12.324;2022-10-18T14:09:24;7.63;;;2.72;;
64075;SDS011;50327;51.328;12.324;2022-10-18T14:14:46;5.70;;;2.80;;
64075;SDS011;50327;51.328;12.324;2022-10-18T14:20:30;6.65;;;2.53;;
64075;SDS011;50327;51.328;12.324;2022-10-18T14:23:14;5.65;;;2.58;;
64075;SDS011;50327;51.328;12.324;2022-10-18T14:25:21;5.60;;;2.30;;
64075;SDS011;50327;51.328;12.324;2022-10-18T14:27:47;6.45;;;2.58;;
64075;SDS011;50327;51.328;12.324;2022-10-18T14:30:13;5.63;;;3.05;;
64075;SDS011;50327;51.328;12.324;2022-10-18T14:35:31;6.10;;;2.83;;
64075;SDS011;50327;51.328;12.324;2022-10-18T14:37:59;7.28;;;3.17;;
64075;SDS011;50327;51.328;12.324;2022-10-18T14:40:38;6.90;;;2.92;;
64075;SDS011;50327;51.328;12.324;2022-10-18T14:43:14;7.93;;;3.42;;
64075;SDS011;50327;51.328;12.324;2022-10-18T14:45:40;8.32;;;4.05;;
64075;SDS011;50327;51.328;12.324;2022-10-18T14:50:31;10.48;;;4.65;;
64075;SDS011;50327;51.328;12.324;2022-10-18T14:52:56;8.73;;;4.03;;
64075;SDS011;50327;51.328;12.324;2022-10-18T14:55:25;9.30;;;4.25;;
64075;SDS011;50327;51.328;12.324;2022-10-18T14:57:52;9.82;;;4.47;;
64075;SDS011;50327;51.328;12.324;2022-10-18T15:00:29;8.70;;;4.60;;
64075;SDS011;50327;51.328;12.324;2022-10-18T15:02:57;9.45;;;4.57;;
64075;SDS011;50327;51.328;12.324;2022-10-18T15:05:23;8.75;;;4.40;;
64075;SDS011;50327;51.328;12.324;2022-10-18T15:07:49;7.45;;;4.05;;
64075;SDS011;50327;51.328;12.324;2022-10-18T15:10:26;10.07;;;4.20;;
64075;SDS011;50327;51.328;12.324;2022-10-18T15:12:52;10.55;;;4.15;;
64075;SDS011;50327;51.328;12.324;2022-10-18T15:15:23;8.07;;;4.82;;
64075;SDS011;50327;51.328;12.324;2022-10-18T15:17:49;12.05;;;4.65;;
64075;SDS011;50327;51.328;12.324;2022-10-18T15:20:22;8.88;;;5.13;;
64075;SDS011;50327;51.328;12.324;2022-10-18T15:22:52;15.00;;;6.15;;
64075;SDS011;50327;51.328;12.324;2022-10-18T15:27:46;13.73;;;6.40;;
64075;SDS011;50327;51.328;12.324;2022-10-18T15:30:17;18.50;;;7.22;;
64075;SDS011;50327;51.328;12.324;2022-10-18T15:32:47;12.07;;;5.72;;
64075;SDS011;50327;51.328;12.324;2022-10-18T15:35:15;10.88;;;5.85;;
64075;SDS011;50327;51.328;12.324;2022-10-18T15:37:41;11.60;;;6.03;;
64075;SDS011;50327;51.328;12.324;2022-10-18T15:42:45;13.90;;;6.55;;
64075;SDS011;50327;51.328;12.324;2022-10-18T15:45:25;13.10;;;7.05;;
64075;SDS011;50327;51.328;12.324;2022-10-18T15:58:43;12.27;;;6.97;;
64075;SDS011;50327;51.328;12.324;2022-10-18T16:01:13;12.30;;;6.20;;
64075;SDS011;50327;51.328;12.324;2022-10-18T16:03:38;14.77;;;7.78;;
64075;SDS011;50327;51.328;12.324;2022-10-18T16:06:06;18.10;;;7.93;;
64075;SDS011;50327;51.328;12.324;2022-10-18T16:08:34;16.05;;;7.80;;
64075;SDS011;50327;51.328;12.324;2022-10-18T16:11:04;14.38;;;7.15;;
64075;SDS011;50327;51.328;12.324;2022-10-18T16:13:30;13.75;;;7.10;;
64075;SDS011;50327;51.328;12.324;2022-10-18T16:15:55;16.90;;;7.03;;
64075;SDS011;50327;51.328;12.324;2022-10-18T16:18:20;15.32;;;7.28;;
64075;SDS011;50327;51.328;12.324;2022-10-18T16:20:46;16.30;;;7.47;;
64075;SDS011;50327;51.328;12.324;2022-10-18T16:23:13;16.58;;;8.57;;
64075;SDS011;50327;51.328;12.324;2022-10-18T16:25:40;15.63;;;7.43;;
64075;SDS011;50327;51.328;12.324;2022-10-18T16:28:05;13.43;;;7.97;;
64075;SDS011;50327;51.328;12.324;2022-10-18T16:30:30;13.43;;;7.38;;
64075;SDS011;50327;51.328;12.324;2022-10-18T16:32:57;14.95;;;8.23;;
64075;SDS011;50327;51.328;12.324;2022-10-18T16:35:22;15.13;;;7.43;;
64075;SDS011;50327;51.328;12.324;2022-10-18T16:37:47;16.67;;;8.27;;
64075;SDS011;50327;51.328;12.324;2022-10-18T16:40:22;16.93;;;7.50;;
64075;SDS011;50327;51.328;12.324;2022-10-18T16:42:48;13.30;;;7.72;;
64075;SDS011;50327;51.328;12.324;2022-10-18T16:45:13;14.77;;;7.47;;
64075;SDS011;50327;51.328;12.324;2022-10-18T16:47:38;19.42;;;7.75;;
64075;SDS011;50327;51.328;12.324;2022-10-18T16:50:04;16.52;;;7.20;;
64075;SDS011;50327;51.328;12.324;2022-10-18T16:52:32;16.48;;;7.00;;
64075;SDS011;50327;51.328;12.324;2022-10-18T16:54:57;10.63;;;5.88;;
64075;SDS011;50327;51.328;12.324;2022-10-18T16:57:22;12.38;;;6.45;;
64075;SDS011;50327;51.328;12.324;2022-10-18T16:59:47;12.05;;;6.20;;
64075;SDS011;50327;51.328;12.324;2022-10-18T17:02:13;13.40;;;6.57;;
64075;SDS011;50327;51.328;12.324;2022-10-18T17:04:38;10.68;;;6.00;;
64075;SDS011;50327;51.328;12.324;2022-10-18T17:07:03;15.23;;;7.50;;
64075;SDS011;50327;51.328;12.324;2022-10-18T17:09:29;10.07;;;6.40;;
64075;SDS011;50327;51.328;12.324;2022-10-18T17:11:54;12.98;;;6.63;;
64075;SDS011;50327;51.328;12.324;2022-10-18T17:14:19;12.25;;;6.22;;
64075;SDS011;50327;51.328;12.324;2022-10-18T17:16:44;12.02;;;6.50;;
64075;SDS011;50327;51.328;12.324;2022-10-18T17:19:10;10.45;;;6.50;;
64075;SDS011;50327;51.328;12.324;2022-10-18T17:21:35;12.10;;;6.60;;
64075;SDS011;50327;51.328;12.324;2022-10-18T17:24:01;12.57;;;7.10;;
64075;SDS011;50327;51.328;12.324;2022-10-18T17:26:27;12.07;;;6.78;;
64075;SDS011;50327;51.328;12.324;2022-10-18T17:28:53;13.13;;;7.35;;